createdAt,value
2019-04-16T00:01:58.108Z,8.84
2019-04-16T00:05:06.341Z,8.71
2019-04-16T00:08:01.120Z,8.66
2019-04-16T00:11:12.071Z,8.74
2019-04-16T00:14:09.848Z,8.72
2019-04-16T00:16:58.989Z,8.68
2019-04-16T00:19:48.013Z,8.60
2019-04-16T00:22:42.173Z,8.51
2019-04-16T00:25:30.610Z,8.45
2019-04-16T00:28:19.430Z,8.44
2019-04-16T00:31:08.460Z,8.46
2019-04-16T00:33:56.788Z,8.50
2019-04-16T00:36:48.460Z,8.51
2019-04-16T00:39:37.132Z,8.46
2019-04-16T00:42:25.248Z,8.37
2019-04-16T00:45:13.992Z,8.24
2019-04-16T00:48:03.164Z,8.11
2019-04-16T00:50:52.350Z,8.02
2019-04-16T00:53:41.007Z,7.94
2019-04-16T00:56:29.139Z,7.93
2019-04-16T00:59:17.266Z,7.88
2019-04-16T01:02:05.785Z,7.85
2019-04-16T01:04:54.989Z,7.86
2019-04-16T01:07:43.531Z,7.85
2019-04-16T01:10:31.879Z,7.86
2019-04-16T01:13:21.699Z,7.82
2019-04-16T01:16:09.894Z,7.69
2019-04-16T01:18:59.089Z,7.64
2019-04-16T01:21:48.179Z,7.69
2019-04-16T01:24:36.965Z,7.67
2019-04-16T01:27:32.518Z,7.59
2019-04-16T01:30:31.077Z,7.52
2019-04-16T01:33:35.644Z,7.48
2019-04-16T01:36:35.797Z,7.39
2019-04-16T01:39:26.921Z,7.48
2019-04-16T01:42:15.967Z,7.37
2019-04-16T01:45:07.367Z,7.32
2019-04-16T01:47:56.106Z,7.44
2019-04-16T01:50:44.816Z,7.32
2019-04-16T01:53:33.172Z,7.26
2019-04-16T01:56:21.767Z,7.18
2019-04-16T01:59:10.393Z,7.24
2019-04-16T02:01:59.241Z,7.34
2019-04-16T02:04:48.439Z,7.39
2019-04-16T02:07:37.686Z,7.21
2019-04-16T02:10:25.805Z,7.04
2019-04-16T02:13:15.282Z,6.93
2019-04-16T02:16:04.958Z,6.93
2019-04-16T02:18:53.835Z,6.87
2019-04-16T02:21:45.423Z,6.78
2019-04-16T02:24:33.989Z,6.77
2019-04-16T02:27:23.437Z,6.75
2019-04-16T02:30:13.086Z,6.73
2019-04-16T02:33:02.050Z,6.68
2019-04-16T02:35:50.887Z,6.63
2019-04-16T02:38:46.417Z,6.70
2019-04-16T02:41:30.001Z,6.65
2019-04-16T02:44:19.669Z,6.54
2019-04-16T02:47:08.773Z,6.50
2019-04-16T02:49:58.930Z,6.61
2019-04-16T02:52:52.709Z,6.67
2019-04-16T02:55:48.061Z,6.76
2019-04-16T02:58:41.444Z,6.87
2019-04-16T03:01:49.369Z,6.94
2019-04-16T03:04:50.899Z,6.87
2019-04-16T03:07:39.816Z,6.66
2019-04-16T03:10:28.748Z,6.68
2019-04-16T03:13:17.541Z,6.58
2019-04-16T03:16:25.199Z,6.54
2019-04-16T03:19:20.276Z,6.44
2019-04-16T03:22:09.027Z,6.25
2019-04-16T03:24:57.797Z,6.11
2019-04-16T03:27:51.481Z,6.01
2019-04-16T03:30:42.542Z,6.06
2019-04-16T03:33:30.726Z,5.99
2019-04-16T03:36:18.992Z,5.97
2019-04-16T03:39:11.974Z,5.86
2019-04-16T03:41:57.720Z,5.90
2019-04-16T03:44:46.293Z,5.83
2019-04-16T03:47:37.459Z,5.89
2019-04-16T03:50:31.079Z,5.85
2019-04-16T03:53:17.932Z,5.85
2019-04-16T03:56:08.137Z,5.82
2019-04-16T03:58:56.945Z,5.76
2019-04-16T04:01:46.723Z,5.90
2019-04-16T04:04:38.067Z,5.89
2019-04-16T04:07:27.021Z,5.75
2019-04-16T04:10:28.999Z,5.49
2019-04-16T04:13:05.837Z,5.36
2019-04-16T04:15:58.545Z,5.47
2019-04-16T04:18:48.237Z,5.60
2019-04-16T04:21:36.362Z,5.69
2019-04-16T04:24:24.952Z,5.73
2019-04-16T04:27:18.211Z,5.82
2019-04-16T04:30:04.812Z,5.84
2019-04-16T04:32:53.793Z,5.82
2019-04-16T04:35:42.779Z,5.71
2019-04-16T04:38:33.577Z,5.51
2019-04-16T04:41:23.046Z,5.38
2019-04-16T04:44:11.359Z,5.26
2019-04-16T04:46:59.950Z,5.22
2019-04-16T04:49:48.128Z,5.26
2019-04-16T04:52:38.432Z,5.22
2019-04-16T04:55:27.431Z,5.23
2019-04-16T04:58:16.447Z,5.32
2019-04-16T05:01:05.551Z,5.33
2019-04-16T05:04:26.113Z,5.34
2019-04-16T05:07:15.206Z,5.44
2019-04-16T05:10:07.545Z,5.39
2019-04-16T05:12:55.581Z,5.40
2019-04-16T05:15:44.512Z,5.43
2019-04-16T05:18:32.867Z,5.40
2019-04-16T05:21:21.293Z,5.46
2019-04-16T05:24:10.153Z,5.55
2019-04-16T05:26:58.852Z,5.56
2019-04-16T05:29:48.856Z,5.69
2019-04-16T05:32:37.717Z,5.66
2019-04-16T05:35:26.433Z,5.69
2019-04-16T05:38:14.676Z,5.84
2019-04-16T05:41:13.318Z,5.94
2019-04-16T05:43:53.292Z,6.04
2019-04-16T05:46:46.261Z,6.16
2019-04-16T05:49:32.136Z,6.26
2019-04-16T05:52:21.000Z,6.42
2019-04-16T05:55:26.621Z,6.45
2019-04-16T05:58:15.082Z,6.62
2019-04-16T06:01:14.763Z,6.79
2019-04-16T06:04:03.645Z,6.97
2019-04-16T06:06:52.614Z,7.08
2019-04-16T06:09:41.498Z,7.16
2019-04-16T06:12:45.560Z,7.27
2019-04-16T06:15:59.423Z,7.46
2019-04-16T06:19:19.360Z,7.61
2019-04-16T06:22:30.269Z,7.52
2019-04-16T06:25:41.047Z,7.50
2019-04-16T06:29:00.164Z,7.61
2019-04-16T06:32:11.903Z,7.78
2019-04-16T06:35:26.377Z,7.89
2019-04-16T06:38:24.175Z,7.62
2019-04-16T06:41:41.392Z,7.78
2019-04-16T06:44:24.209Z,7.98
2019-04-16T06:47:31.631Z,8.09
2019-04-16T06:50:32.227Z,8.23
2019-04-16T06:53:46.620Z,8.36
2019-04-16T06:56:52.645Z,8.45
2019-04-16T07:00:12.326Z,8.42
2019-04-16T07:03:18.956Z,8.53
2019-04-16T07:06:36.156Z,8.49
2019-04-16T07:09:45.982Z,8.66
2019-04-16T07:12:38.585Z,8.78
2019-04-16T07:15:28.552Z,8.90
2019-04-16T07:18:20.767Z,8.79
2019-04-16T07:21:10.621Z,9.00
2019-04-16T07:24:01.725Z,9.15
2019-04-16T07:26:51.085Z,9.16
2019-04-16T07:29:46.657Z,9.29
2019-04-16T07:32:54.022Z,9.43
2019-04-16T07:35:55.133Z,9.53
2019-04-16T07:38:49.394Z,9.62
2019-04-16T07:42:09.481Z,9.65
2019-04-16T07:45:15.829Z,9.69
2019-04-16T07:48:11.070Z,9.87
2019-04-16T07:51:18.664Z,10.02
2019-04-16T07:54:24.519Z,10.21
2019-04-16T07:57:13.537Z,10.05
2019-04-16T08:00:02.355Z,10.21
2019-04-16T08:02:53.627Z,10.32
2019-04-16T08:05:42.931Z,10.46
2019-04-16T08:08:32.201Z,10.55
2019-04-16T08:11:23.077Z,10.67
2019-04-16T08:14:14.548Z,10.82
2019-04-16T08:17:01.008Z,10.85
2019-04-16T08:19:49.937Z,10.78
2019-04-16T08:22:40.114Z,10.96
2019-04-16T08:25:33.502Z,11.01
2019-04-16T08:28:20.661Z,11.06
2019-04-16T08:31:14.507Z,11.23
2019-04-16T08:34:03.283Z,11.33
2019-04-16T08:36:52.255Z,11.50
2019-04-16T08:39:40.975Z,11.71
2019-04-16T08:42:43.662Z,11.96
2019-04-16T08:45:20.868Z,12.11
2019-04-16T08:48:17.038Z,12.16
2019-04-16T08:51:04.737Z,12.30
2019-04-16T08:53:52.081Z,12.36
2019-04-16T08:56:43.222Z,12.40
2019-04-16T08:59:30.760Z,12.52
2019-04-16T09:02:19.143Z,12.49
2019-04-16T09:05:11.402Z,12.58
2019-04-16T09:08:12.701Z,12.72
2019-04-16T09:10:55.945Z,12.85
2019-04-16T09:13:51.532Z,13.00
2019-04-16T09:16:49.923Z,13.25
2019-04-16T09:19:40.256Z,13.23
2019-04-16T09:22:31.212Z,13.36
2019-04-16T09:25:46.057Z,13.36
2019-04-16T09:29:01.032Z,13.49
2019-04-16T09:32:11.467Z,13.63
2019-04-16T09:35:20.440Z,13.68
2019-04-16T09:38:19.553Z,13.85
2019-04-16T09:41:32.615Z,13.96
2019-04-16T09:44:21.289Z,14.07
2019-04-16T09:47:09.835Z,14.13
2019-04-16T09:49:58.742Z,14.21
2019-04-16T09:52:46.893Z,14.40
2019-04-16T09:55:36.030Z,14.48
2019-04-16T09:58:25.590Z,14.53
2019-04-16T10:01:13.764Z,14.64
2019-04-16T10:04:02.277Z,14.76
2019-04-16T10:06:51.169Z,14.81
2019-04-16T10:09:39.500Z,15.01
2019-04-16T10:12:28.600Z,15.13
2019-04-16T10:15:17.360Z,15.38
2019-04-16T10:18:05.771Z,15.68
2019-04-16T10:20:55.183Z,15.74
2019-04-16T10:23:50.675Z,15.77
2019-04-16T10:26:39.574Z,15.90
2019-04-16T10:29:28.323Z,15.99
2019-04-16T10:32:18.331Z,16.15
2019-04-16T10:35:07.572Z,16.44
2019-04-16T10:37:58.968Z,16.70
2019-04-16T10:40:52.571Z,16.92
2019-04-16T10:44:18.401Z,16.82
2019-04-16T10:47:25.763Z,16.99
2019-04-16T10:50:42.992Z,16.87
2019-04-16T10:53:59.070Z,16.94
2019-04-16T10:57:10.116Z,17.10
2019-04-16T11:00:16.119Z,17.36
2019-04-16T11:03:28.752Z,17.31
2019-04-16T11:06:30.890Z,17.34
2019-04-16T11:09:19.975Z,17.36
2019-04-16T11:12:08.534Z,17.37
2019-04-16T11:14:57.592Z,17.32
2019-04-16T11:17:46.260Z,17.23
2019-04-16T11:20:35.319Z,17.34
2019-04-16T11:23:23.931Z,17.44
2019-04-16T11:26:13.040Z,17.28
2019-04-16T11:29:01.459Z,17.33
2019-04-16T11:31:49.636Z,17.56
2019-04-16T11:34:38.160Z,17.95
2019-04-16T11:37:26.956Z,18.38
2019-04-16T11:40:16.170Z,18.51
2019-04-16T11:43:04.477Z,18.41
2019-04-16T11:45:52.982Z,18.59
2019-04-16T11:48:41.901Z,18.55
2019-04-16T11:51:31.026Z,18.75
2019-04-16T11:54:19.625Z,18.72
2019-04-16T11:57:08.389Z,18.87
2019-04-16T12:00:06.694Z,19.00
2019-04-16T12:03:08.946Z,19.27
2019-04-16T12:06:27.071Z,18.94
2019-04-16T12:09:32.473Z,18.67
2019-04-16T12:12:40.290Z,18.93
2019-04-16T12:15:40.436Z,18.95
2019-04-16T12:18:48.041Z,18.85
2019-04-16T12:21:58.608Z,18.59
2019-04-16T12:25:02.588Z,18.73
2019-04-16T12:28:14.322Z,18.88
2019-04-16T12:31:20.717Z,19.19
2019-04-16T12:34:22.988Z,19.53
2019-04-16T12:37:30.053Z,19.43
2019-04-16T12:40:33.711Z,19.34
2019-04-16T12:43:30.093Z,18.86
2019-04-16T12:46:31.359Z,18.84
2019-04-16T12:49:38.048Z,18.78
2019-04-16T12:52:46.919Z,18.40
2019-04-16T12:55:53.651Z,18.12
2019-04-16T12:58:51.241Z,18.26
2019-04-16T13:01:58.052Z,18.56
2019-04-16T13:05:20.897Z,18.88
2019-04-16T13:08:32.911Z,18.70
2019-04-16T13:11:46.739Z,18.80
2019-04-16T13:15:04.275Z,18.72
2019-04-16T13:18:06.232Z,18.53
2019-04-16T13:21:16.875Z,18.49
2019-04-16T13:24:18.509Z,18.54
2019-04-16T13:27:11.611Z,18.69
2019-04-16T13:30:01.987Z,18.73
2019-04-16T13:32:50.152Z,18.85
2019-04-16T13:35:38.845Z,19.12
2019-04-16T13:38:28.448Z,19.44
2019-04-16T13:41:16.889Z,19.81
2019-04-16T13:44:09.846Z,20.28
2019-04-16T13:47:03.027Z,20.48
2019-04-16T13:50:02.630Z,20.65
2019-04-16T13:52:48.362Z,21.17
2019-04-16T13:55:55.958Z,21.30
2019-04-16T13:59:06.982Z,20.68
2019-04-16T14:02:03.632Z,20.65
2019-04-16T14:04:52.601Z,21.45
2019-04-16T14:07:41.671Z,21.93
2019-04-16T14:10:30.244Z,22.13
2019-04-16T14:13:19.075Z,22.06
2019-04-16T14:16:12.757Z,21.56
2019-04-16T14:19:02.480Z,22.04
2019-04-16T14:21:50.595Z,22.39
2019-04-16T14:24:39.540Z,23.04
2019-04-16T14:27:28.030Z,23.70
2019-04-16T14:30:20.176Z,24.09
2019-04-16T14:33:08.833Z,24.14
2019-04-16T14:35:57.978Z,24.43
2019-04-16T14:38:50.374Z,24.42
2019-04-16T14:41:38.839Z,24.24
2019-04-16T14:44:31.669Z,23.64
2019-04-16T14:47:21.111Z,23.64
2019-04-16T14:50:13.327Z,23.36
2019-04-16T14:53:00.550Z,23.03
2019-04-16T14:56:00.584Z,22.70
2019-04-16T14:59:09.296Z,22.35
2019-04-16T15:02:09.617Z,22.11
2019-04-16T15:05:16.446Z,21.79
2019-04-16T15:08:24.207Z,21.56
2019-04-16T15:11:38.032Z,21.52
2019-04-16T15:14:40.376Z,22.49
2019-04-16T15:17:48.206Z,22.48
2019-04-16T15:20:54.341Z,22.52
2019-04-16T15:24:20.212Z,22.00
2019-04-16T15:27:37.251Z,21.42
2019-04-16T15:31:01.518Z,21.04
2019-04-16T15:33:51.739Z,20.90
2019-04-16T15:36:49.898Z,20.81
2019-04-16T15:40:01.333Z,20.79
2019-04-16T15:43:03.269Z,20.70
2019-04-16T15:46:25.220Z,20.58
2019-04-16T15:49:23.283Z,21.09
2019-04-16T15:52:36.235Z,22.47
2019-04-16T15:55:44.564Z,22.76
2019-04-16T15:58:52.534Z,21.95
2019-04-16T16:02:03.709Z,21.57
2019-04-16T16:04:59.199Z,21.63
2019-04-16T16:08:01.442Z,21.42
2019-04-16T16:10:53.792Z,21.08
2019-04-16T16:13:42.753Z,20.99
2019-04-16T16:16:41.562Z,20.94
2019-04-16T16:19:21.680Z,20.91
2019-04-16T16:22:12.031Z,20.78
2019-04-16T16:25:02.591Z,20.86
2019-04-16T16:27:51.477Z,20.73
2019-04-16T16:30:40.302Z,20.60
2019-04-16T16:33:29.281Z,20.67
2019-04-16T16:36:18.282Z,20.56
2019-04-16T16:39:07.616Z,20.50
2019-04-16T16:41:56.131Z,20.24
2019-04-16T16:44:44.601Z,20.28
2019-04-16T16:47:40.483Z,20.20
2019-04-16T16:50:29.223Z,20.01
2019-04-16T16:53:29.379Z,19.95
2019-04-16T16:56:36.990Z,19.64
2019-04-16T16:59:43.160Z,19.65
2019-04-16T17:03:00.036Z,19.49
2019-04-16T17:05:49.698Z,19.23
2019-04-16T17:08:38.235Z,19.09
2019-04-16T17:11:27.340Z,19.04
2019-04-16T17:14:16.086Z,18.97
2019-04-16T17:17:13.857Z,18.95
2019-04-16T17:19:55.795Z,18.80
2019-04-16T17:22:45.134Z,18.69
2019-04-16T17:25:36.677Z,18.58
2019-04-16T17:28:24.925Z,18.43
2019-04-16T17:31:14.480Z,18.26
2019-04-16T17:34:03.419Z,18.03
2019-04-16T17:36:52.643Z,17.94
2019-04-16T17:40:00.757Z,17.84
2019-04-16T17:42:51.904Z,17.74
2019-04-16T17:45:51.926Z,17.67
2019-04-16T17:48:51.103Z,17.66
2019-04-16T17:51:48.346Z,17.62
2019-04-16T17:55:02.243Z,17.56
2019-04-16T17:58:00.721Z,17.48
2019-04-16T18:01:26.500Z,17.40
2019-04-16T18:04:36.640Z,17.24
2019-04-16T18:07:43.072Z,17.13
2019-04-16T18:11:00.310Z,17.10
2019-04-16T18:14:04.647Z,17.09
2019-04-16T18:16:55.952Z,17.08
2019-04-16T18:20:06.295Z,17.07
2019-04-16T18:23:12.915Z,16.94
2019-04-16T18:26:27.574Z,16.91
2019-04-16T18:29:23.269Z,16.72
2019-04-16T18:32:31.793Z,16.54
2019-04-16T18:35:28.089Z,16.51
2019-04-16T18:38:33.698Z,16.16
2019-04-16T18:41:32.574Z,16.03
2019-04-16T18:44:55.021Z,16.03
2019-04-16T18:48:05.365Z,16.10
2019-04-16T18:50:51.776Z,16.09
2019-04-16T18:53:43.362Z,16.11
2019-04-16T18:56:33.018Z,16.07
2019-04-16T18:59:21.898Z,16.03
2019-04-16T19:02:10.461Z,15.94
2019-04-16T19:04:59.085Z,15.86
2019-04-16T19:07:47.969Z,15.78
2019-04-16T19:10:36.569Z,15.72
2019-04-16T19:13:25.656Z,15.67
2019-04-16T19:16:15.832Z,15.60
2019-04-16T19:19:04.868Z,15.52
2019-04-16T19:21:54.184Z,15.47
2019-04-16T19:24:42.875Z,15.38
2019-04-16T19:27:31.910Z,15.37
2019-04-16T19:30:22.914Z,15.34
2019-04-16T19:33:12.299Z,15.36
2019-04-16T19:36:01.047Z,15.37
2019-04-16T19:38:50.580Z,15.35
2019-04-16T19:41:41.356Z,15.04
2019-04-16T19:44:33.297Z,14.82
2019-04-16T19:47:23.125Z,14.80
2019-04-16T19:50:10.641Z,14.91
2019-04-16T19:52:59.502Z,14.75
2019-04-16T19:55:48.105Z,14.78
2019-04-16T19:58:37.142Z,14.58
2019-04-16T20:01:26.234Z,14.56
2019-04-16T20:04:15.180Z,14.52
2019-04-16T20:07:03.452Z,14.49
2019-04-16T20:09:52.483Z,14.43
2019-04-16T20:12:41.456Z,14.41
2019-04-16T20:15:30.338Z,14.47
2019-04-16T20:18:22.221Z,14.42
2019-04-16T20:21:10.938Z,14.56
2019-04-16T20:23:59.460Z,14.70
2019-04-16T20:26:48.507Z,14.75
2019-04-16T20:29:37.037Z,14.76
2019-04-16T20:32:26.763Z,14.70
2019-04-16T20:35:18.244Z,14.73
2019-04-16T20:38:05.118Z,14.70
2019-04-16T20:40:53.978Z,14.60
2019-04-16T20:43:43.141Z,14.56
2019-04-16T20:46:32.433Z,14.57
2019-04-16T20:49:20.818Z,14.59
2019-04-16T20:52:09.647Z,14.50
2019-04-16T20:54:58.025Z,14.42
2019-04-16T20:57:47.223Z,14.29
2019-04-16T21:00:42.327Z,14.14
2019-04-16T21:03:31.052Z,14.02
2019-04-16T21:06:18.912Z,13.96
2019-04-16T21:09:08.534Z,13.84
2019-04-16T21:11:57.166Z,13.79
2019-04-16T21:14:46.149Z,13.72
2019-04-16T21:17:38.156Z,13.61
2019-04-16T21:20:26.250Z,13.52
2019-04-16T21:23:14.517Z,13.49
2019-04-16T21:26:03.056Z,13.39
2019-04-16T21:29:09.859Z,13.32
2019-04-16T21:32:01.951Z,13.25
2019-04-16T21:34:58.679Z,13.12
2019-04-16T21:38:07.062Z,13.11
2019-04-16T21:40:56.441Z,13.04
2019-04-16T21:43:46.172Z,12.96
2019-04-16T21:46:35.131Z,12.86
2019-04-16T21:49:37.790Z,12.84
2019-04-16T21:52:13.844Z,12.81
2019-04-16T21:55:04.656Z,12.80
2019-04-16T21:57:52.971Z,12.72
2019-04-16T22:01:07.023Z,12.74
2019-04-16T22:04:14.678Z,12.80
2019-04-16T22:07:07.165Z,12.81
2019-04-16T22:09:54.827Z,12.62
2019-04-16T22:12:44.700Z,12.59
2019-04-16T22:15:33.866Z,12.60
2019-04-16T22:18:22.826Z,12.53
2019-04-16T22:21:11.992Z,12.39
2019-04-16T22:24:00.820Z,12.27
2019-04-16T22:26:49.799Z,12.16
2019-04-16T22:29:38.489Z,11.96
2019-04-16T22:32:30.151Z,12.05
2019-04-16T22:35:16.725Z,12.05
2019-04-16T22:38:05.140Z,12.08
2019-04-16T22:41:27.435Z,12.03
2019-04-16T22:44:30.843Z,11.94
2019-04-16T22:47:24.561Z,11.80
2019-04-16T22:50:17.001Z,11.79
2019-04-16T22:53:03.604Z,11.82
2019-04-16T22:55:56.333Z,11.82
2019-04-16T22:58:49.452Z,11.85
2019-04-16T23:01:41.710Z,11.89
2019-04-16T23:04:28.861Z,11.81
2019-04-16T23:07:17.692Z,11.77
2019-04-16T23:10:07.354Z,11.74
2019-04-16T23:12:59.534Z,11.64
2019-04-16T23:15:46.164Z,11.43
2019-04-16T23:18:35.212Z,11.27
2019-04-16T23:21:23.921Z,11.18
2019-04-16T23:24:12.564Z,11.23
2019-04-16T23:27:04.146Z,11.25
2019-04-16T23:29:50.969Z,11.09
2019-04-16T23:32:39.649Z,10.96
2019-04-16T23:35:28.028Z,11.09
2019-04-16T23:38:16.770Z,11.15
2019-04-16T23:41:05.308Z,11.05
2019-04-16T23:44:25.792Z,10.98
2019-04-16T23:47:31.020Z,11.07
2019-04-16T23:50:44.128Z,11.10
2019-04-16T23:53:48.629Z,10.98
2019-04-16T23:56:49.753Z,10.78
